createdAt,value
2022-12-01T00:01:24.385Z,100.00
2022-12-01T00:04:25.942Z,100.00
2022-12-01T00:07:27.527Z,100.00
2022-12-01T00:10:29.132Z,100.00
2022-12-01T00:13:30.763Z,100.00
2022-12-01T00:16:33.467Z,100.00
2022-12-01T00:19:35.154Z,100.00
2022-12-01T00:22:36.704Z,100.00
2022-12-01T00:25:38.335Z,100.00
2022-12-01T00:28:39.952Z,100.00
2022-12-01T00:31:42.174Z,100.00
2022-12-01T00:34:43.761Z,100.00
2022-12-01T00:37:45.296Z,100.00
2022-12-01T00:40:46.866Z,100.00
2022-12-01T00:43:48.455Z,100.00
2022-12-01T00:46:50.054Z,100.00
2022-12-01T00:49:52.407Z,100.00
2022-12-01T00:52:53.965Z,100.00
2022-12-01T00:55:55.586Z,100.00
2022-12-01T00:58:57.324Z,100.00
2022-12-01T01:01:59.023Z,100.00
2022-12-01T01:05:00.581Z,100.00
2022-12-01T01:08:02.144Z,100.00
2022-12-01T01:11:04.977Z,100.00
2022-12-01T01:14:07.385Z,100.00
2022-12-01T01:17:08.972Z,100.00
2022-12-01T01:20:11.015Z,100.00
2022-12-01T01:23:12.556Z,100.00
2022-12-01T01:26:18.497Z,100.00
2022-12-01T01:29:20.066Z,100.00
2022-12-01T01:32:21.824Z,100.00
2022-12-01T01:35:23.384Z,100.00
2022-12-01T01:38:24.921Z,100.00
2022-12-01T01:41:26.498Z,100.00
2022-12-01T01:44:49.102Z,100.00
2022-12-01T01:47:52.829Z,100.00
2022-12-01T01:50:54.913Z,100.00
2022-12-01T01:54:02.343Z,100.00
2022-12-01T01:57:07.536Z,100.00
2022-12-01T02:00:12.536Z,100.00
2022-12-01T02:03:16.883Z,100.00
2022-12-01T02:06:18.572Z,100.00
2022-12-01T02:09:20.120Z,100.00
2022-12-01T02:12:49.379Z,100.00
2022-12-01T02:15:53.922Z,100.00
2022-12-01T02:19:35.908Z,100.00
2022-12-01T02:23:00.974Z,100.00
2022-12-01T02:26:19.422Z,100.00
2022-12-01T02:29:32.974Z,100.00
2022-12-01T02:32:45.475Z,100.00
2022-12-01T02:36:12.627Z,100.00
2022-12-01T02:39:30.481Z,100.00
2022-12-01T02:42:49.892Z,100.00
2022-12-01T02:46:31.306Z,100.00
2022-12-01T02:49:36.836Z,100.00
2022-12-01T02:52:41.130Z,100.00
2022-12-01T02:55:51.706Z,100.00
2022-12-01T02:58:53.465Z,100.00
2022-12-01T03:02:01.384Z,100.00
2022-12-01T03:05:26.628Z,100.00
2022-12-01T03:09:16.736Z,100.00
2022-12-01T03:12:24.384Z,100.00
2022-12-01T03:15:45.040Z,100.00
2022-12-01T03:19:24.939Z,100.00
2022-12-01T03:22:37.823Z,100.00
2022-12-01T03:25:43.350Z,100.00
2022-12-01T03:28:52.342Z,100.00
2022-12-01T03:32:13.144Z,100.00
2022-12-01T03:35:20.684Z,100.00
2022-12-01T03:38:24.613Z,100.00
2022-12-01T03:41:33.260Z,100.00
2022-12-01T03:44:47.791Z,100.00
2022-12-01T03:47:49.392Z,100.00
2022-12-01T03:51:12.403Z,100.00
2022-12-01T03:54:21.416Z,100.00
2022-12-01T03:57:31.884Z,100.00
2022-12-01T04:00:33.953Z,100.00
2022-12-01T04:03:35.603Z,100.00
2022-12-01T04:06:37.494Z,100.00
2022-12-01T04:09:41.436Z,100.00
2022-12-01T04:12:43.006Z,100.00
2022-12-01T04:15:44.585Z,100.00
2022-12-01T04:18:46.511Z,100.00
2022-12-01T04:21:48.091Z,100.00
2022-12-01T04:24:49.782Z,100.00
2022-12-01T04:27:51.573Z,100.00
2022-12-01T04:30:53.340Z,100.00
2022-12-01T04:33:56.177Z,100.00
2022-12-01T04:36:57.758Z,100.00
2022-12-01T04:39:59.304Z,100.00
2022-12-01T04:43:00.846Z,100.00
2022-12-01T04:46:02.903Z,100.00
2022-12-01T04:49:05.552Z,100.00
2022-12-01T04:52:07.563Z,100.00
2022-12-01T04:55:09.613Z,100.00
2022-12-01T04:58:11.170Z,100.00
2022-12-01T05:01:14.907Z,100.00
2022-12-01T05:04:16.678Z,100.00
2022-12-01T05:07:18.321Z,100.00
2022-12-01T05:10:20.256Z,100.00
2022-12-01T05:13:21.817Z,100.00
2022-12-01T05:16:25.840Z,100.00
2022-12-01T05:19:46.196Z,100.00
2022-12-01T05:23:04.961Z,100.00
2022-12-01T05:26:14.359Z,100.00
2022-12-01T05:29:16.184Z,100.00
2022-12-01T05:32:17.728Z,100.00
2022-12-01T05:35:19.341Z,100.00
2022-12-01T05:38:21.144Z,100.00
2022-12-01T05:41:22.789Z,100.00
2022-12-01T05:44:24.346Z,100.00
2022-12-01T05:47:25.891Z,100.00
2022-12-01T05:50:29.375Z,100.00
2022-12-01T05:53:31.140Z,100.00
2022-12-01T05:56:32.696Z,100.00
2022-12-01T05:59:34.295Z,100.00
2022-12-01T06:02:35.853Z,100.00
2022-12-01T06:05:37.418Z,100.00
2022-12-01T06:08:38.975Z,100.00
2022-12-01T06:11:40.682Z,100.00
2022-12-01T06:14:42.570Z,100.00
2022-12-01T06:17:44.309Z,100.00
2022-12-01T06:20:45.995Z,100.00
2022-12-01T06:23:47.721Z,100.00
2022-12-01T06:26:49.401Z,100.00
2022-12-01T06:29:51.161Z,100.00
2022-12-01T06:32:53.017Z,100.00
2022-12-01T06:35:59.284Z,100.00
2022-12-01T06:39:00.842Z,100.00
2022-12-01T06:42:02.439Z,100.00
2022-12-01T06:45:04.236Z,100.00
2022-12-01T06:48:05.991Z,100.00
2022-12-01T06:51:07.721Z,100.00
2022-12-01T06:54:11.631Z,100.00
2022-12-01T06:57:13.336Z,100.00
2022-12-01T07:00:15.635Z,100.00
2022-12-01T07:03:17.597Z,100.00
2022-12-01T07:06:19.182Z,100.00
2022-12-01T07:09:20.790Z,100.00
2022-12-01T07:12:24.701Z,100.00
2022-12-01T07:15:28.697Z,100.00
2022-12-01T07:18:31.127Z,99.51
2022-12-01T07:21:32.696Z,99.06
2022-12-01T07:24:34.341Z,99.52
2022-12-01T07:27:36.091Z,97.99
2022-12-01T07:30:37.679Z,96.62
2022-12-01T07:33:39.672Z,93.36
2022-12-01T07:36:41.399Z,89.46
2022-12-01T07:39:43.150Z,87.36
2022-12-01T07:42:44.692Z,85.72
2022-12-01T07:45:46.568Z,89.73
2022-12-01T07:48:48.908Z,90.52
2022-12-01T07:51:50.485Z,90.48
2022-12-01T07:54:52.744Z,90.93
2022-12-01T07:57:54.328Z,90.82
2022-12-01T08:00:55.990Z,93.00
2022-12-01T08:03:59.327Z,92.58
2022-12-01T08:07:00.943Z,93.09
2022-12-01T08:10:02.583Z,94.13
2022-12-01T08:13:04.501Z,93.94
2022-12-01T08:16:08.250Z,92.40
2022-12-01T08:19:10.952Z,90.45
2022-12-01T08:22:12.485Z,80.84
2022-12-01T08:25:14.168Z,69.30
2022-12-01T08:28:15.731Z,64.68
2022-12-01T08:31:25.148Z,63.37
2022-12-01T08:34:27.345Z,58.99
2022-12-01T08:37:28.908Z,54.16
2022-12-01T08:40:30.846Z,53.16
2022-12-01T08:43:56.706Z,51.12
2022-12-01T08:46:54.581Z,44.09
2022-12-01T08:49:56.226Z,39.14
2022-12-01T08:52:57.776Z,37.60
2022-12-01T08:56:01.811Z,34.24
2022-12-01T08:59:03.980Z,34.04
2022-12-01T09:02:07.312Z,30.73
2022-12-01T09:05:09.309Z,32.67
2022-12-01T09:08:29.554Z,30.07
2022-12-01T09:11:31.187Z,29.96
2022-12-01T09:14:38.742Z,30.92
2022-12-01T09:17:40.343Z,30.96
2022-12-01T09:20:41.889Z,29.89
2022-12-01T09:23:43.485Z,27.99
2022-12-01T09:26:45.097Z,28.58
2022-12-01T09:29:46.977Z,30.89
2022-12-01T09:32:48.656Z,37.82
2022-12-01T09:35:50.297Z,44.72
2022-12-01T09:38:52.062Z,47.98
2022-12-01T09:41:59.473Z,53.63
2022-12-01T09:45:04.378Z,59.19
2022-12-01T09:48:07.809Z,63.35
2022-12-01T09:51:17.250Z,69.04
2022-12-01T09:54:18.940Z,70.30
2022-12-01T09:57:36.645Z,73.55
2022-12-01T10:00:42.991Z,73.96
2022-12-01T10:03:53.153Z,71.58
2022-12-01T10:06:54.617Z,71.36
2022-12-01T10:09:59.246Z,73.54
2022-12-01T10:13:00.935Z,72.27
2022-12-01T10:16:07.873Z,75.32
2022-12-01T10:19:41.251Z,76.90
2022-12-01T10:22:50.643Z,76.10
2022-12-01T10:25:52.094Z,75.75
2022-12-01T10:29:08.968Z,76.38
2022-12-01T10:32:30.641Z,75.40
2022-12-01T10:35:37.677Z,76.39
2022-12-01T10:38:39.343Z,75.84
2022-12-01T10:41:41.469Z,76.40
2022-12-01T10:44:44.311Z,77.02
2022-12-01T10:48:24.323Z,78.99
2022-12-01T10:51:27.905Z,79.71
2022-12-01T10:54:34.133Z,79.34
2022-12-01T10:57:37.595Z,79.85
2022-12-01T11:01:09.495Z,80.18
2022-12-01T11:04:21.270Z,79.25
2022-12-01T11:07:29.777Z,80.43
2022-12-01T11:10:37.364Z,79.98
2022-12-01T11:13:41.986Z,79.17
2022-12-01T11:16:49.405Z,79.23
2022-12-01T11:19:51.205Z,79.05
2022-12-01T11:22:54.190Z,77.55
2022-12-01T11:26:14.031Z,77.57
2022-12-01T11:29:38.917Z,79.58
2022-12-01T11:32:40.579Z,78.03
2022-12-01T11:35:48.767Z,77.21
2022-12-01T11:38:54.945Z,77.95
2022-12-01T11:42:02.147Z,81.63
2022-12-01T11:45:03.616Z,78.07
2022-12-01T11:48:17.295Z,75.89
2022-12-01T11:51:21.549Z,74.22
2022-12-01T11:54:25.727Z,73.72
2022-12-01T11:57:34.986Z,75.21
2022-12-01T12:00:54.488Z,77.09
2022-12-01T12:04:04.610Z,74.31
2022-12-01T12:07:24.903Z,76.17
2022-12-01T12:10:32.599Z,76.26
2022-12-01T12:13:52.133Z,78.21
2022-12-01T12:17:09.088Z,78.92
2022-12-01T12:20:52.674Z,79.97
2022-12-01T12:24:36.783Z,80.23
2022-12-01T12:28:08.419Z,79.47
2022-12-01T12:31:44.258Z,80.15
2022-12-01T12:34:58.934Z,79.78
2022-12-01T12:38:00.427Z,79.53
2022-12-01T12:41:29.913Z,80.00
2022-12-01T12:44:50.542Z,81.16
2022-12-01T12:48:05.805Z,81.01
2022-12-01T12:51:10.434Z,79.58
2022-12-01T12:54:12.080Z,79.23
2022-12-01T12:57:34.794Z,78.67
2022-12-01T13:00:42.345Z,77.38
2022-12-01T13:03:59.667Z,77.67
2022-12-01T13:07:15.247Z,77.01
2022-12-01T13:10:48.201Z,76.36
2022-12-01T13:13:49.647Z,75.88
2022-12-01T13:16:56.272Z,75.34
2022-12-01T13:19:57.855Z,76.07
2022-12-01T13:23:02.495Z,77.38
2022-12-01T13:26:08.216Z,77.93
2022-12-01T13:29:23.375Z,76.97
2022-12-01T13:32:30.572Z,76.78
2022-12-01T13:35:37.454Z,77.40
2022-12-01T13:38:40.154Z,79.56
2022-12-01T13:41:44.289Z,79.95
2022-12-01T13:44:55.722Z,81.06
2022-12-01T13:48:01.577Z,80.84
2022-12-01T13:51:04.082Z,81.12
2022-12-01T13:54:26.460Z,81.45
2022-12-01T13:57:30.621Z,79.03
2022-12-01T14:00:34.998Z,78.69
2022-12-01T14:03:40.828Z,79.84
2022-12-01T14:06:50.573Z,80.95
2022-12-01T14:09:56.166Z,80.87
2022-12-01T14:13:02.705Z,81.93
2022-12-01T14:16:05.324Z,83.52
2022-12-01T14:19:25.828Z,83.23
2022-12-01T14:22:38.334Z,84.45
2022-12-01T14:25:41.610Z,85.18
2022-12-01T14:28:55.466Z,87.88
2022-12-01T14:31:59.973Z,87.23
2022-12-01T14:35:04.991Z,89.08
2022-12-01T14:38:10.148Z,92.32
2022-12-01T14:41:22.695Z,91.69
2022-12-01T14:44:38.089Z,92.95
2022-12-01T14:47:44.596Z,95.46
2022-12-01T14:50:50.307Z,96.72
2022-12-01T14:53:52.543Z,97.79
2022-12-01T14:57:02.697Z,98.49
2022-12-01T15:00:12.751Z,99.26
2022-12-01T15:03:14.779Z,97.93
2022-12-01T15:06:19.412Z,98.20
2022-12-01T15:09:33.368Z,99.59
2022-12-01T15:12:44.380Z,99.24
2022-12-01T15:16:03.747Z,100.00
2022-12-01T15:19:32.403Z,100.00
2022-12-01T15:22:33.965Z,100.00
2022-12-01T15:25:37.078Z,100.00
2022-12-01T15:28:38.613Z,100.00
2022-12-01T15:31:40.737Z,100.00
2022-12-01T15:34:48.366Z,100.00
2022-12-01T15:37:52.572Z,100.00
2022-12-01T15:44:27.254Z,100.00
2022-12-01T15:47:43.823Z,100.00
2022-12-01T15:50:59.168Z,100.00
2022-12-01T15:54:02.938Z,100.00
2022-12-01T15:57:05.981Z,100.00
2022-12-01T16:00:18.693Z,100.00
2022-12-01T16:03:20.296Z,100.00
2022-12-01T16:06:28.730Z,100.00
2022-12-01T16:10:03.096Z,100.00
2022-12-01T16:13:42.239Z,100.00
2022-12-01T16:16:46.411Z,100.00
2022-12-01T16:19:48.255Z,100.00
2022-12-01T16:22:58.931Z,100.00
2022-12-01T16:26:02.137Z,100.00
2022-12-01T16:29:19.942Z,100.00
2022-12-01T16:32:27.766Z,100.00
2022-12-01T16:35:32.509Z,100.00
2022-12-01T16:38:34.686Z,100.00
2022-12-01T16:41:39.156Z,100.00
2022-12-01T16:44:42.077Z,100.00
2022-12-01T16:47:46.072Z,100.00
2022-12-01T16:50:48.950Z,100.00
2022-12-01T16:53:51.212Z,100.00
2022-12-01T16:56:53.212Z,100.00
2022-12-01T16:59:55.171Z,100.00
2022-12-01T17:02:58.035Z,100.00
2022-12-01T17:06:04.527Z,100.00
2022-12-01T17:09:06.373Z,100.00
2022-12-01T17:12:08.005Z,100.00
2022-12-01T17:15:10.420Z,100.00
2022-12-01T17:18:13.042Z,100.00
2022-12-01T17:21:14.895Z,100.00
2022-12-01T17:24:19.230Z,100.00
2022-12-01T17:27:23.493Z,100.00
2022-12-01T17:30:25.560Z,100.00
2022-12-01T17:33:27.676Z,100.00
2022-12-01T17:36:29.692Z,100.00
2022-12-01T17:39:31.862Z,100.00
2022-12-01T17:42:34.047Z,100.00
2022-12-01T17:45:35.612Z,100.00
2022-12-01T17:48:39.275Z,100.00
2022-12-01T17:51:41.789Z,100.00
2022-12-01T17:54:43.560Z,100.00
2022-12-01T17:57:45.257Z,100.00
2022-12-01T18:00:48.723Z,100.00
2022-12-01T18:03:51.021Z,100.00
2022-12-01T18:06:54.525Z,100.00
2022-12-01T18:09:56.667Z,100.00
2022-12-01T18:12:58.341Z,100.00
2022-12-01T18:16:00.756Z,100.00
2022-12-01T18:19:04.118Z,100.00
2022-12-01T18:22:05.745Z,100.00
2022-12-01T18:25:07.884Z,100.00
2022-12-01T18:28:12.519Z,100.00
2022-12-01T18:31:16.385Z,100.00
2022-12-01T18:34:18.325Z,100.00
2022-12-01T18:37:21.128Z,100.00
2022-12-01T18:40:27.334Z,100.00
2022-12-01T18:43:31.374Z,100.00
2022-12-01T18:46:33.678Z,100.00
2022-12-01T18:49:35.554Z,100.00
2022-12-01T18:52:40.720Z,100.00
2022-12-01T18:55:42.725Z,100.00
2022-12-01T18:58:44.310Z,100.00
2022-12-01T19:01:48.067Z,100.00
2022-12-01T19:04:50.710Z,100.00
2022-12-01T19:07:55.818Z,100.00
2022-12-01T19:11:03.521Z,100.00
2022-12-01T19:14:05.505Z,100.00
2022-12-01T19:17:07.559Z,100.00
2022-12-01T19:20:10.128Z,100.00
2022-12-01T19:23:12.246Z,100.00
2022-12-01T19:26:19.982Z,100.00
2022-12-01T19:29:22.220Z,100.00
2022-12-01T19:32:24.283Z,100.00
2022-12-01T19:35:26.365Z,100.00
2022-12-01T19:38:28.000Z,100.00
2022-12-01T19:41:30.098Z,100.00
2022-12-01T19:44:32.168Z,100.00
2022-12-01T19:47:34.999Z,100.00
2022-12-01T19:50:36.888Z,100.00
2022-12-01T19:53:38.465Z,100.00
2022-12-01T19:56:41.285Z,100.00
2022-12-01T19:59:43.420Z,100.00
2022-12-01T20:02:46.598Z,100.00
2022-12-01T20:05:48.674Z,100.00
2022-12-01T20:08:51.437Z,100.00
2022-12-01T20:11:54.237Z,100.00
2022-12-01T20:14:56.289Z,100.00
2022-12-01T20:17:58.265Z,100.00
2022-12-01T20:21:20.076Z,100.00
2022-12-01T20:24:23.276Z,100.00
2022-12-01T20:27:25.639Z,100.00
2022-12-01T20:30:28.484Z,100.00
2022-12-01T20:33:30.827Z,100.00
2022-12-01T20:36:33.026Z,100.00
2022-12-01T20:39:37.376Z,100.00
2022-12-01T20:42:40.133Z,100.00
2022-12-01T20:45:42.267Z,100.00
2022-12-01T20:48:44.664Z,100.00
2022-12-01T20:51:47.365Z,100.00
2022-12-01T20:54:49.471Z,100.00
2022-12-01T20:58:00.496Z,100.00
2022-12-01T21:01:11.741Z,100.00
2022-12-01T21:04:14.075Z,100.00
2022-12-01T21:07:15.703Z,100.00
2022-12-01T21:10:20.160Z,100.00
2022-12-01T21:13:41.991Z,100.00
2022-12-01T21:16:48.321Z,100.00
2022-12-01T21:20:11.700Z,100.00
2022-12-01T21:23:16.038Z,100.00
2022-12-01T21:26:19.032Z,100.00
2022-12-01T21:29:22.098Z,100.00
2022-12-01T21:32:34.478Z,100.00
2022-12-01T21:35:36.038Z,100.00
2022-12-01T21:38:37.642Z,100.00
2022-12-01T21:41:39.415Z,100.00
2022-12-01T21:44:41.035Z,100.00
2022-12-01T21:47:42.621Z,100.00
2022-12-01T21:50:48.104Z,100.00
2022-12-01T21:53:56.357Z,100.00
2022-12-01T21:56:58.672Z,100.00
2022-12-01T22:00:29.284Z,100.00
2022-12-01T22:03:33.753Z,100.00
2022-12-01T22:06:40.229Z,100.00
2022-12-01T22:09:41.777Z,100.00
2022-12-01T22:12:43.333Z,100.00
2022-12-01T22:15:44.988Z,100.00
2022-12-01T22:18:52.513Z,100.00
2022-12-01T22:22:02.904Z,100.00
2022-12-01T22:25:27.704Z,100.00
2022-12-01T22:28:29.250Z,100.00
2022-12-01T22:31:31.482Z,100.00
2022-12-01T22:34:34.403Z,100.00
2022-12-01T22:37:59.772Z,100.00
2022-12-01T22:41:01.304Z,100.00
2022-12-01T22:44:02.967Z,100.00
2022-12-01T22:47:04.957Z,100.00
2022-12-01T22:50:32.370Z,100.00
2022-12-01T22:53:33.925Z,100.00
2022-12-01T22:56:39.657Z,100.00
2022-12-01T22:59:43.533Z,100.00
2022-12-01T23:02:48.467Z,100.00
2022-12-01T23:05:55.579Z,100.00
2022-12-01T23:08:57.117Z,100.00
2022-12-01T23:12:05.101Z,100.00
2022-12-01T23:15:36.438Z,100.00
2022-12-01T23:18:38.080Z,100.00
2022-12-01T23:21:39.669Z,100.00
2022-12-01T23:24:41.361Z,100.00
2022-12-01T23:27:45.033Z,100.00
2022-12-01T23:30:49.558Z,100.00
2022-12-01T23:33:51.598Z,100.00
2022-12-01T23:36:53.174Z,100.00
2022-12-01T23:39:55.831Z,100.00
2022-12-01T23:43:15.899Z,100.00
2022-12-01T23:46:24.170Z,100.00
2022-12-01T23:49:30.138Z,100.00
2022-12-01T23:52:36.383Z,100.00
2022-12-01T23:55:37.944Z,100.00
2022-12-01T23:58:39.494Z,100.00
